Doug C. — WTX4517 — position and weather

sailwx.info

Track history (hours):
 
Tides and Currents Weather Stations Pressure Air Temp Water Temp Dewpoint Dewpoint Depression Visibility Wind Speed Wind Dir Waves Ship Positions

Doug C.

Owner: C & C BOATS INC, HUNTINGTON BEACH, CA. More information available from US FCC via Universal Licensing System and Coast Guard Vessel Documentation Center.

Last reported at 2018-Apr-22 04:24 UTC. Time now 2018-Apr-22 04:53 UTC.
Position N 34°26' W 119°55'.

Length 22 m.

Type: Passenger vessel. MMSI: 367090830.

Date/timePositionNaut miles runAvg speedWind from/ knotsBaromVisibWave heightAir tempDewpointWater temp
2018-Apr-22 04:24N 34°26' W 119°55'0 0.0
2018-Apr-22 04:00N 34°26' W 119°55'0 0.0
2018-Apr-22 03:21N 34°26' W 119°55'0 0.0
2018-Apr-22 01:33N 34°26' W 119°55'0 1.1
2018-Apr-22 01:18N 34°26' W 119°55'3 8.6
2018-Apr-22 01:00N 34°23' W 119°54'2 3.0
2018-Apr-22 00:14N 34°26' W 119°55'0 0.0
2018-Apr-21 23:58N 34°26' W 119°55'0 0.0
2018-Apr-21 23:30N 34°26' W 119°55'0 0.0
2018-Apr-21 22:45N 34°26' W 119°55'0 0.0
2018-Apr-21 22:30N 34°26' W 119°55'0 0.0
2018-Apr-21 21:45N 34°26' W 119°55'0 0.0
2018-Apr-21 21:30N 34°26' W 119°55'0 0.0
2018-Apr-21 20:27N 34°26' W 119°55'0 0.0
2018-Apr-21 18:06N 34°26' W 119°55'0 0.1
2018-Apr-21 17:59N 34°26' W 119°55'0 0.5
2018-Apr-21 17:29N 34°26' W 119°55'0 0.1
2018-Apr-21 14:42N 34°26' W 119°55'0 0.0
2018-Apr-21 14:03N 34°26' W 119°55'0 0.0
2018-Apr-21 13:51N 34°26' W 119°55'0 0.0
2018-Apr-21 13:27N 34°26' W 119°55'2 5.1
2018-Apr-21 13:00N 34°23' W 119°54'2 4.2
2018-Apr-21 12:27N 34°26' W 119°55'0 0.0
2018-Apr-21 11:33N 34°26' W 119°55'0 0.0
2018-Apr-21 09:17N 34°26' W 119°55'0 0.0
2018-Apr-21 04:59N 34°26' W 119°55'0 0.0
2018-Apr-21 03:50N 34°26' W 119°55'0 0.0
2018-Apr-21 03:23N 34°26' W 119°55'0 0.0
2018-Apr-21 01:38N 34°26' W 119°55'0 0.0
2018-Apr-21 01:30N 34°26' W 119°55'1 2.6
2018-Apr-21 00:59N 34°24' W 119°56'2 3.0
2018-Apr-21 00:28N 34°26' W 119°55'0 0.5
2018-Apr-20 23:55N 34°26' W 119°55'0 0.0
2018-Apr-20 23:21N 34°26' W 119°55'0 0.0
2018-Apr-20 22:50N 34°26' W 119°55'0 0.0
2018-Apr-20 22:14N 34°26' W 119°55'0 0.1
2018-Apr-20 21:38N 34°26' W 119°55'0 0.1
2018-Apr-20 21:26N 34°26' W 119°55'2 4.3
2018-Apr-20 20:55N 34°23' W 119°54'2 4.7
2018-Apr-20 20:25N 34°26' W 119°55'0 0.0
2018-Apr-20 19:56N 34°26' W 119°55'0 0.1
2018-Apr-20 19:20N 34°26' W 119°55'0 0.0
2018-Apr-20 16:33N 34°26' W 119°55'0 0.0
2018-Apr-20 16:19N 34°26' W 119°55'2 0.8
2018-Apr-20 13:18N 34°23' W 119°54'3 4.8
2018-Apr-20 12:46N 34°26' W 119°55'0 0.1
2018-Apr-20 10:50N 34°26' W 119°55'0 0.0
2018-Apr-20 04:57N 34°26' W 119°55'0 0.0
2018-Apr-20 01:33N 34°26' W 119°55'0 2.2
2018-Apr-20 01:25N 34°26' W 119°55'3 5.7
2018-Apr-20 00:58N 34°23' W 119°54'0 0.1
2018-Apr-19 23:31N 34°24' W 119°54'0 2.2
2018-Apr-19 23:27N 34°23' W 119°54'2 0.7
2018-Apr-19 20:49N 34°25' W 119°56'1 1.7
2018-Apr-19 20:29N 34°24' W 119°56'1 2.6
2018-Apr-19 19:56N 34°26' W 119°55'0 0.0
2018-Apr-19 19:19N 34°26' W 119°55'0 0.0
2018-Apr-19 18:57N 34°26' W 119°55'2 4.9
2018-Apr-19 18:29N 34°23' W 119°54'3 4.2
2018-Apr-19 17:52N 34°26' W 119°55'3 6.4
2018-Apr-19 17:28N 34°23' W 119°54'0 0.0
2018-Apr-19 16:53N 34°23' W 119°54'3 2.9
2018-Apr-19 15:58N 34°26' W 119°55'2 4.0
2018-Apr-19 15:28N 34°24' W 119°55'2 3.2
2018-Apr-19 14:53N 34°26' W 119°55'0 0.2
2018-Apr-19 14:25N 34°26' W 119°55'0 0.5
2018-Apr-19 13:53N 34°26' W 119°55'2 5.5
2018-Apr-19 13:28N 34°23' W 119°54'2 4.8
2018-Apr-19 12:58N 34°26' W 119°56'0 0.1
2018-Apr-19 10:32N 34°26' W 119°55'0 0.0
2018-Apr-19 10:29N 34°26' W 119°55'0 0.0
2018-Apr-19 07:00N 34°26' W 119°55'0 0.0
2018-Apr-19 06:12N 34°26' W 119°55'0 0.0
2018-Apr-19 04:48N 34°26' W 119°55'0 0.0
2018-Apr-19 04:24N 34°26' W 119°55'0 0.1
2018-Apr-19 01:22N 34°26' W 119°55'2 4.3
2018-Apr-19 00:54N 34°24' W 119°55'2 0.7
2018-Apr-18 22:15N 34°26' W 119°55'0 0.0
2018-Apr-18 21:48N 34°26' W 119°55'0 0.0
2018-Apr-18 21:16N 34°26' W 119°55'0 1.6
2018-Apr-18 20:58N 34°25' W 119°56'2 0.6
2018-Apr-18 17:44N 34°23' W 119°55'0 0.0
2018-Apr-18 17:28N 34°23' W 119°55'0 0.1
2018-Apr-18 16:37N 34°23' W 119°55'0 0.0
2018-Apr-18 16:20N 34°23' W 119°55'0 0.5
2018-Apr-18 15:57N 34°23' W 119°54'2 1.8
2018-Apr-18 14:42N 34°26' W 119°55'0 0.0
2018-Apr-18 14:24N 34°26' W 119°55'0 0.0
2018-Apr-18 14:00N 34°26' W 119°55'0 0.7
2018-Apr-18 13:29N 34°25' W 119°56'2 3.8
2018-Apr-18 12:59N 34°24' W 119°55'2 3.8
2018-Apr-18 12:26N 34°26' W 119°55'0 0.0
2018-Apr-18 10:57N 34°26' W 119°55'0 0.0
2018-Apr-18 10:28N 34°26' W 119°55'0 0.0
2018-Apr-18 01:39N 34°26' W 119°55'0 0.0
2018-Apr-18 01:30N 34°26' W 119°55'0 0.8
2018-Apr-18 00:59N 34°25' W 119°56'0 1.0
2018-Apr-18 00:30N 34°26' W 119°55'0 0.5
2018-Apr-17 23:56N 34°26' W 119°55'1 2.5
2018-Apr-17 23:27N 34°25' W 119°56'2 3.4
2018-Apr-17 22:58N 34°23' W 119°54'2 3.2
2018-Apr-17 22:27N 34°25' W 119°56'1 2.7
2018-Apr-17 21:58N 34°26' W 119°55'0 0.0
2018-Apr-17 21:30N 34°26' W 119°55'2 3.3
2018-Apr-17 20:58N 34°24' W 119°55'1 1.2
2018-Apr-17 20:08N 34°23' W 119°54'0 0.0
2018-Apr-17 19:57N 34°23' W 119°54'1 1.1
2018-Apr-17 19:24N 34°24' W 119°55'2 0.7
2018-Apr-17 16:59N 34°26' W 119°55'0 0.0
2018-Apr-17 16:29N 34°26' W 119°55'2 2.8
2018-Apr-17 15:54N 34°24' W 119°55'2 3.4
2018-Apr-17 15:21N 34°26' W 119°55'0 0.4
2018-Apr-17 14:35N 34°26' W 119°55'0 0.0
2018-Apr-17 14:11N 34°26' W 119°55'0 0.1
2018-Apr-17 13:41N 34°25' W 119°55'2 9.1
2018-Apr-17 13:26N 34°23' W 119°54'2 4.8
2018-Apr-17 13:00N 34°25' W 119°56'0 0.1
2018-Apr-17 08:56N 34°26' W 119°55'0 0.0
2018-Apr-17 07:39N 34°26' W 119°55'0 0.0
2018-Apr-17 07:12N 34°26' W 119°55'0 0.0
2018-Apr-17 06:42N 34°26' W 119°55'0 0.1
2018-Apr-17 01:18N 34°26' W 119°55'3 8.1
2018-Apr-17 00:59N 34°23' W 119°54'2 4.4
2018-Apr-17 00:28N 34°26' W 119°55'0 0.1
2018-Apr-16 23:39N 34°26' W 119°55'0 0.0
2018-Apr-16 23:20N 34°26' W 119°55'0 0.0
2018-Apr-16 21:15N 34°26' W 119°55'2 5.5
2018-Apr-16 20:53N 34°24' W 119°55'2 1.8
2018-Apr-16 19:49N 34°26' W 119°55'0 0.2
2018-Apr-16 18:01N 34°26' W 119°55'1 2.2
2018-Apr-16 17:45N 34°25' W 119°55'1 0.4
2018-Apr-16 16:22N 34°26' W 119°55'3 4.5
2018-Apr-16 15:49N 34°23' W 119°55'0 0.0
2018-Apr-16 14:49N 34°23' W 119°55'2 1.2
2018-Apr-16 12:56N 34°25' W 119°56'0 0.1
2018-Apr-16 09:30N 34°26' W 119°55'0 0.0
2018-Apr-16 08:58N 34°26' W 119°55'0 0.0
2018-Apr-16 07:16N 34°26' W 119°55'0 0.0
2018-Apr-16 06:52N 34°26' W 119°55'0 0.0
2018-Apr-16 05:19N 34°26' W 119°55'0 0.0
2018-Apr-16 04:52N 34°26' W 119°55'0 0.0
2018-Apr-16 04:28N 34°26' W 119°55'0 0.0
2018-Apr-16 01:42N 34°26' W 119°55'0 0.0
2018-Apr-16 01:18N 34°26' W 119°55'1 2.2
2018-Apr-16 01:00N 34°25' W 119°56'1 1.0
2018-Apr-16 00:21N 34°26' W 119°55'0 0.0
2018-Apr-15 23:54N 34°26' W 119°55'0 0.0
2018-Apr-15 23:30N 34°26' W 119°55'0 0.0
2018-Apr-15 22:44N 34°26' W 119°55'0 0.0
2018-Apr-15 22:23N 34°26' W 119°55'0 0.0
2018-Apr-15 21:53N 34°26' W 119°55'0 0.0
2018-Apr-15 21:14N 34°26' W 119°55'0 0.0
2018-Apr-15 20:38N 34°26' W 119°55'0 0.0
2018-Apr-15 20:11N 34°26' W 119°55'0 0.0
2018-Apr-15 18:41N 34°26' W 119°55'0 0.0
2018-Apr-15 18:23N 34°26' W 119°55'0 0.0
2018-Apr-15 17:50N 34°26' W 119°55'0 0.0
2018-Apr-15 17:29N 34°26' W 119°55'0 0.0
2018-Apr-15 16:59N 34°26' W 119°55'0 0.0
2018-Apr-15 16:23N 34°26' W 119°55'0 0.0
2018-Apr-15 15:53N 34°26' W 119°55'0 0.0
2018-Apr-15 15:23N 34°26' W 119°55'0 0.0
2018-Apr-15 13:29N 34°26' W 119°55'0 0.7
2018-Apr-15 13:00N 34°25' W 119°56'0 0.4
2018-Apr-15 12:15N 34°26' W 119°55'0 0.0
2018-Apr-15 11:21N 34°26' W 119°55'0 0.0
2018-Apr-15 10:57N 34°26' W 119°55'0 0.0
2018-Apr-15 10:21N 34°26' W 119°55'0 0.0
2018-Apr-15 08:42N 34°26' W 119°55'0 0.0
2018-Apr-15 08:30N 34°26' W 119°55'0 0.0
2018-Apr-15 07:51N 34°26' W 119°55'0 0.0
2018-Apr-15 07:22N 34°26' W 119°55'0 0.0
2018-Apr-15 06:55N 34°26' W 119°55'0 0.0
2018-Apr-15 05:02N 34°26' W 119°55'0 0.0
2018-Apr-15 04:32N 34°26' W 119°55'0 0.0
2018-Apr-15 04:23N 34°26' W 119°55'0 0.0
2018-Apr-15 03:35N 34°26' W 119°55'0 0.0
2018-Apr-15 03:29N 34°26' W 119°55'0 0.0
2018-Apr-15 02:14N 34°26' W 119°55'0 0.0
2018-Apr-15 01:53N 34°26' W 119°55'0 0.0
2018-Apr-15 01:20N 34°26' W 119°55'0 0.7
2018-Apr-15 01:00N 34°26' W 119°55'0 0.2
2018-Apr-14 23:47N 34°26' W 119°55'0 0.0
2018-Apr-14 23:25N 34°26' W 119°55'1 2.5
2018-Apr-14 22:52N 34°24' W 119°55'1 0.9
2018-Apr-14 21:49N 34°23' W 119°54'2 5.4
2018-Apr-14 21:27N 34°25' W 119°56'1 0.7
2018-Apr-14 20:32N 34°26' W 119°55'0 0.0
2018-Apr-14 20:26N 34°26' W 119°55'0 0.0
2018-Apr-14 19:56N 34°26' W 119°55'0 0.1
2018-Apr-14 19:05N 34°26' W 119°55'0 0.0
2018-Apr-14 17:38N 34°26' W 119°55'0 1.6
2018-Apr-14 17:28N 34°26' W 119°55'0 0.1
2018-Apr-14 15:10N 34°26' W 119°55'0 0.2
2018-Apr-14 13:19N 34°26' W 119°55'2 6.1
2018-Apr-14 12:58N 34°24' W 119°55'2 2.9
2018-Apr-14 12:21N 34°26' W 119°55'0 0.0
2018-Apr-14 10:51N 34°26' W 119°55'0 0.0
2018-Apr-14 10:30N 34°26' W 119°55'0 0.0
2018-Apr-14 07:10N 34°26' W 119°55'0 0.0
2018-Apr-14 06:52N 34°26' W 119°55'0 0.0
2018-Apr-14 03:44N 34°26' W 119°55'0 0.0
2018-Apr-14 03:29N 34°26' W 119°55'0 0.0
2018-Apr-14 02:48N 34°26' W 119°55'0 0.0
2018-Apr-14 02:00N 34°26' W 119°55'0 0.0
2018-Apr-14 01:27N 34°26' W 119°55'2 4.2
2018-Apr-14 00:54N 34°23' W 119°54'3 6.4
2018-Apr-14 00:30N 34°26' W 119°55'0 0.2
2018-Apr-13 23:14N 34°26' W 119°55'0 0.0
2018-Apr-13 21:50N 34°26' W 119°55'0 0.0
2018-Apr-13 21:28N 34°26' W 119°55'2 1.1
2018-Apr-13 19:27N 34°23' W 119°55'0 0.0
2018-Apr-13 18:57N 34°23' W 119°55'0 0.0
2018-Apr-13 18:04N 34°23' W 119°55'0 0.0
2018-Apr-13 17:34N 34°23' W 119°55'0 0.2
2018-Apr-13 17:22N 34°23' W 119°55'2 2.1
2018-Apr-13 16:12N 34°26' W 119°55'3 7.6
2018-Apr-13 15:52N 34°23' W 119°54'2 1.0
2018-Apr-13 13:42N 34°26' W 119°55'0 0.6
2018-Apr-13 13:27N 34°26' W 119°55'0 0.2
2018-Apr-13 12:33N 34°26' W 119°55'0 0.2
2018-Apr-13 11:10N 34°26' W 119°55'0 0.0
2018-Apr-13 01:18N 34°26' W 119°55'2 4.4
2018-Apr-13 00:57N 34°24' W 119°55'2 0.5
2018-Apr-12 22:08N 34°26' W 119°55'0 0.0
2018-Apr-12 21:42N 34°26' W 119°55'0 0.0
2018-Apr-12 21:10N 34°25' W 119°55'1 4.4
2018-Apr-12 20:59N 34°25' W 119°56'1 0.2
2018-Apr-12 16:23N 34°26' W 119°55'0 0.0
2018-Apr-12 15:55N 34°26' W 119°55'0 0.0
2018-Apr-12 15:07N 34°26' W 119°55'0 0.0
2018-Apr-12 14:37N 34°26' W 119°55'0 0.8
2018-Apr-12 14:13N 34°26' W 119°55'0 0.4
2018-Apr-12 13:28N 34°26' W 119°55'0 0.8
2018-Apr-12 12:56N 34°25' W 119°56'0 0.9
2018-Apr-12 12:26N 34°26' W 119°55'0 0.0
2018-Apr-12 04:56N 34°26' W 119°55'  
Track history (hours):
 
Tides and Currents Weather Stations Pressure Air Temp Water Temp Dewpoint Dewpoint Depression Visibility Wind Speed Wind Dir Waves Ship Positions

Doug C.

Owner: C & C BOATS INC, HUNTINGTON BEACH, CA. More information available from US FCC via Universal Licensing System and Coast Guard Vessel Documentation Center.

Last reported at 2018-Apr-22 04:24 UTC. Time now 2018-Apr-22 04:53 UTC.
Position N 34°26' W 119°55'.

Length 22 m.

Type: Passenger vessel. MMSI: 367090830.

Date/timePositionNaut miles runAvg speedWind from/ knotsBaromVisibWave heightAir tempDewpointWater temp
2018-Apr-22 04:24N 34°26' W 119°55'0 0.0
2018-Apr-22 04:00N 34°26' W 119°55'0 0.0
2018-Apr-22 03:21N 34°26' W 119°55'0 0.0
2018-Apr-22 01:33N 34°26' W 119°55'0 1.1
2018-Apr-22 01:18N 34°26' W 119°55'3 8.6
2018-Apr-22 01:00N 34°23' W 119°54'2 3.0
2018-Apr-22 00:14N 34°26' W 119°55'0 0.0
2018-Apr-21 23:58N 34°26' W 119°55'0 0.0
2018-Apr-21 23:30N 34°26' W 119°55'0 0.0
2018-Apr-21 22:45N 34°26' W 119°55'0 0.0
2018-Apr-21 22:30N 34°26' W 119°55'0 0.0
2018-Apr-21 21:45N 34°26' W 119°55'0 0.0
2018-Apr-21 21:30N 34°26' W 119°55'0 0.0
2018-Apr-21 20:27N 34°26' W 119°55'0 0.0
2018-Apr-21 18:06N 34°26' W 119°55'0 0.1
2018-Apr-21 17:59N 34°26' W 119°55'0 0.5
2018-Apr-21 17:29N 34°26' W 119°55'0 0.1
2018-Apr-21 14:42N 34°26' W 119°55'0 0.0
2018-Apr-21 14:03N 34°26' W 119°55'0 0.0
2018-Apr-21 13:51N 34°26' W 119°55'0 0.0
2018-Apr-21 13:27N 34°26' W 119°55'2 5.1
2018-Apr-21 13:00N 34°23' W 119°54'2 4.2
2018-Apr-21 12:27N 34°26' W 119°55'0 0.0
2018-Apr-21 11:33N 34°26' W 119°55'0 0.0
2018-Apr-21 09:17N 34°26' W 119°55'0 0.0
2018-Apr-21 04:59N 34°26' W 119°55'0 0.0
2018-Apr-21 03:50N 34°26' W 119°55'0 0.0
2018-Apr-21 03:23N 34°26' W 119°55'0 0.0
2018-Apr-21 01:38N 34°26' W 119°55'0 0.0
2018-Apr-21 01:30N 34°26' W 119°55'1 2.6
2018-Apr-21 00:59N 34°24' W 119°56'2 3.0
2018-Apr-21 00:28N 34°26' W 119°55'0 0.5
2018-Apr-20 23:55N 34°26' W 119°55'0 0.0
2018-Apr-20 23:21N 34°26' W 119°55'0 0.0
2018-Apr-20 22:50N 34°26' W 119°55'0 0.0
2018-Apr-20 22:14N 34°26' W 119°55'0 0.1
2018-Apr-20 21:38N 34°26' W 119°55'0 0.1
2018-Apr-20 21:26N 34°26' W 119°55'2 4.3
2018-Apr-20 20:55N 34°23' W 119°54'2 4.7
2018-Apr-20 20:25N 34°26' W 119°55'0 0.0
2018-Apr-20 19:56N 34°26' W 119°55'0 0.1
2018-Apr-20 19:20N 34°26' W 119°55'0 0.0
2018-Apr-20 16:33N 34°26' W 119°55'0 0.0
2018-Apr-20 16:19N 34°26' W 119°55'2 0.8
2018-Apr-20 13:18N 34°23' W 119°54'3 4.8
2018-Apr-20 12:46N 34°26' W 119°55'0 0.1
2018-Apr-20 10:50N 34°26' W 119°55'0 0.0
2018-Apr-20 04:57N 34°26' W 119°55'0 0.0
2018-Apr-20 01:33N 34°26' W 119°55'0 2.2
2018-Apr-20 01:25N 34°26' W 119°55'3 5.7
2018-Apr-20 00:58N 34°23' W 119°54'0 0.1
2018-Apr-19 23:31N 34°24' W 119°54'0 2.2
2018-Apr-19 23:27N 34°23' W 119°54'2 0.7
2018-Apr-19 20:49N 34°25' W 119°56'1 1.7
2018-Apr-19 20:29N 34°24' W 119°56'1 2.6
2018-Apr-19 19:56N 34°26' W 119°55'0 0.0
2018-Apr-19 19:19N 34°26' W 119°55'0 0.0
2018-Apr-19 18:57N 34°26' W 119°55'2 4.9
2018-Apr-19 18:29N 34°23' W 119°54'3 4.2
2018-Apr-19 17:52N 34°26' W 119°55'3 6.4
2018-Apr-19 17:28N 34°23' W 119°54'0 0.0
2018-Apr-19 16:53N 34°23' W 119°54'3 2.9
2018-Apr-19 15:58N 34°26' W 119°55'2 4.0
2018-Apr-19 15:28N 34°24' W 119°55'2 3.2
2018-Apr-19 14:53N 34°26' W 119°55'0 0.2
2018-Apr-19 14:25N 34°26' W 119°55'0 0.5
2018-Apr-19 13:53N 34°26' W 119°55'2 5.5
2018-Apr-19 13:28N 34°23' W 119°54'2 4.8
2018-Apr-19 12:58N 34°26' W 119°56'0 0.1
2018-Apr-19 10:32N 34°26' W 119°55'0 0.0
2018-Apr-19 10:29N 34°26' W 119°55'0 0.0
2018-Apr-19 07:00N 34°26' W 119°55'0 0.0
2018-Apr-19 06:12N 34°26' W 119°55'0 0.0
2018-Apr-19 04:48N 34°26' W 119°55'0 0.0
2018-Apr-19 04:24N 34°26' W 119°55'0 0.1
2018-Apr-19 01:22N 34°26' W 119°55'2 4.3
2018-Apr-19 00:54N 34°24' W 119°55'2 0.7
2018-Apr-18 22:15N 34°26' W 119°55'0 0.0
2018-Apr-18 21:48N 34°26' W 119°55'0 0.0
2018-Apr-18 21:16N 34°26' W 119°55'0 1.6
2018-Apr-18 20:58N 34°25' W 119°56'2 0.6
2018-Apr-18 17:44N 34°23' W 119°55'0 0.0
2018-Apr-18 17:28N 34°23' W 119°55'0 0.1
2018-Apr-18 16:37N 34°23' W 119°55'0 0.0
2018-Apr-18 16:20N 34°23' W 119°55'0 0.5
2018-Apr-18 15:57N 34°23' W 119°54'2 1.8
2018-Apr-18 14:42N 34°26' W 119°55'0 0.0
2018-Apr-18 14:24N 34°26' W 119°55'0 0.0
2018-Apr-18 14:00N 34°26' W 119°55'0 0.7
2018-Apr-18 13:29N 34°25' W 119°56'2 3.8
2018-Apr-18 12:59N 34°24' W 119°55'2 3.8
2018-Apr-18 12:26N 34°26' W 119°55'0 0.0
2018-Apr-18 10:57N 34°26' W 119°55'0 0.0
2018-Apr-18 10:28N 34°26' W 119°55'0 0.0
2018-Apr-18 01:39N 34°26' W 119°55'0 0.0
2018-Apr-18 01:30N 34°26' W 119°55'0 0.8
2018-Apr-18 00:59N 34°25' W 119°56'0 1.0
2018-Apr-18 00:30N 34°26' W 119°55'0 0.5
2018-Apr-17 23:56N 34°26' W 119°55'1 2.5
2018-Apr-17 23:27N 34°25' W 119°56'2 3.4
2018-Apr-17 22:58N 34°23' W 119°54'2 3.2
2018-Apr-17 22:27N 34°25' W 119°56'1 2.7
2018-Apr-17 21:58N 34°26' W 119°55'0 0.0
2018-Apr-17 21:30N 34°26' W 119°55'2 3.3
2018-Apr-17 20:58N 34°24' W 119°55'1 1.2
2018-Apr-17 20:08N 34°23' W 119°54'0 0.0
2018-Apr-17 19:57N 34°23' W 119°54'1 1.1
2018-Apr-17 19:24N 34°24' W 119°55'2 0.7
2018-Apr-17 16:59N 34°26' W 119°55'0 0.0
2018-Apr-17 16:29N 34°26' W 119°55'2 2.8
2018-Apr-17 15:54N 34°24' W 119°55'2 3.4
2018-Apr-17 15:21N 34°26' W 119°55'0 0.4
2018-Apr-17 14:35N 34°26' W 119°55'0 0.0
2018-Apr-17 14:11N 34°26' W 119°55'0 0.1
2018-Apr-17 13:41N 34°25' W 119°55'2 9.1
2018-Apr-17 13:26N 34°23' W 119°54'2 4.8
2018-Apr-17 13:00N 34°25' W 119°56'0 0.1
2018-Apr-17 08:56N 34°26' W 119°55'0 0.0
2018-Apr-17 07:39N 34°26' W 119°55'0 0.0
2018-Apr-17 07:12N 34°26' W 119°55'0 0.0
2018-Apr-17 06:42N 34°26' W 119°55'0 0.1
2018-Apr-17 01:18N 34°26' W 119°55'3 8.1
2018-Apr-17 00:59N 34°23' W 119°54'2 4.4
2018-Apr-17 00:28N 34°26' W 119°55'0 0.1
2018-Apr-16 23:39N 34°26' W 119°55'0 0.0
2018-Apr-16 23:20N 34°26' W 119°55'0 0.0
2018-Apr-16 21:15N 34°26' W 119°55'2 5.5
2018-Apr-16 20:53N 34°24' W 119°55'2 1.8
2018-Apr-16 19:49N 34°26' W 119°55'0 0.2
2018-Apr-16 18:01N 34°26' W 119°55'1 2.2
2018-Apr-16 17:45N 34°25' W 119°55'1 0.4
2018-Apr-16 16:22N 34°26' W 119°55'3 4.5
2018-Apr-16 15:49N 34°23' W 119°55'0 0.0
2018-Apr-16 14:49N 34°23' W 119°55'2 1.2
2018-Apr-16 12:56N 34°25' W 119°56'0 0.1
2018-Apr-16 09:30N 34°26' W 119°55'0 0.0
2018-Apr-16 08:58N 34°26' W 119°55'0 0.0
2018-Apr-16 07:16N 34°26' W 119°55'0 0.0
2018-Apr-16 06:52N 34°26' W 119°55'0 0.0
2018-Apr-16 05:19N 34°26' W 119°55'0 0.0
2018-Apr-16 04:52N 34°26' W 119°55'0 0.0
2018-Apr-16 04:28N 34°26' W 119°55'0 0.0
2018-Apr-16 01:42N 34°26' W 119°55'0 0.0
2018-Apr-16 01:18N 34°26' W 119°55'1 2.2
2018-Apr-16 01:00N 34°25' W 119°56'1 1.0
2018-Apr-16 00:21N 34°26' W 119°55'0 0.0
2018-Apr-15 23:54N 34°26' W 119°55'0 0.0
2018-Apr-15 23:30N 34°26' W 119°55'0 0.0
2018-Apr-15 22:44N 34°26' W 119°55'0 0.0
2018-Apr-15 22:23N 34°26' W 119°55'0 0.0
2018-Apr-15 21:53N 34°26' W 119°55'0 0.0
2018-Apr-15 21:14N 34°26' W 119°55'0 0.0
2018-Apr-15 20:38N 34°26' W 119°55'0 0.0
2018-Apr-15 20:11N 34°26' W 119°55'0 0.0
2018-Apr-15 18:41N 34°26' W 119°55'0 0.0
2018-Apr-15 18:23N 34°26' W 119°55'0 0.0
2018-Apr-15 17:50N 34°26' W 119°55'0 0.0
2018-Apr-15 17:29N 34°26' W 119°55'0 0.0
2018-Apr-15 16:59N 34°26' W 119°55'0 0.0
2018-Apr-15 16:23N 34°26' W 119°55'0 0.0
2018-Apr-15 15:53N 34°26' W 119°55'0 0.0
2018-Apr-15 15:23N 34°26' W 119°55'0 0.0
2018-Apr-15 13:29N 34°26' W 119°55'0 0.7
2018-Apr-15 13:00N 34°25' W 119°56'0 0.4
2018-Apr-15 12:15N 34°26' W 119°55'0 0.0
2018-Apr-15 11:21N 34°26' W 119°55'0 0.0
2018-Apr-15 10:57N 34°26' W 119°55'0 0.0
2018-Apr-15 10:21N 34°26' W 119°55'0 0.0
2018-Apr-15 08:42N 34°26' W 119°55'0 0.0
2018-Apr-15 08:30N 34°26' W 119°55'0 0.0
2018-Apr-15 07:51N 34°26' W 119°55'0 0.0
2018-Apr-15 07:22N 34°26' W 119°55'0 0.0
2018-Apr-15 06:55N 34°26' W 119°55'0 0.0
2018-Apr-15 05:02N 34°26' W 119°55'0 0.0
2018-Apr-15 04:32N 34°26' W 119°55'0 0.0
2018-Apr-15 04:23N 34°26' W 119°55'0 0.0
2018-Apr-15 03:35N 34°26' W 119°55'0 0.0
2018-Apr-15 03:29N 34°26' W 119°55'0 0.0
2018-Apr-15 02:14N 34°26' W 119°55'0 0.0
2018-Apr-15 01:53N 34°26' W 119°55'0 0.0
2018-Apr-15 01:20N 34°26' W 119°55'0 0.7
2018-Apr-15 01:00N 34°26' W 119°55'0 0.2
2018-Apr-14 23:47N 34°26' W 119°55'0 0.0
2018-Apr-14 23:25N 34°26' W 119°55'1 2.5
2018-Apr-14 22:52N 34°24' W 119°55'1 0.9
2018-Apr-14 21:49N 34°23' W 119°54'2 5.4
2018-Apr-14 21:27N 34°25' W 119°56'1 0.7
2018-Apr-14 20:32N 34°26' W 119°55'0 0.0
2018-Apr-14 20:26N 34°26' W 119°55'0 0.0
2018-Apr-14 19:56N 34°26' W 119°55'0 0.1
2018-Apr-14 19:05N 34°26' W 119°55'0 0.0
2018-Apr-14 17:38N 34°26' W 119°55'0 1.6
2018-Apr-14 17:28N 34°26' W 119°55'0 0.1
2018-Apr-14 15:10N 34°26' W 119°55'0 0.2
2018-Apr-14 13:19N 34°26' W 119°55'2 6.1
2018-Apr-14 12:58N 34°24' W 119°55'2 2.9
2018-Apr-14 12:21N 34°26' W 119°55'0 0.0
2018-Apr-14 10:51N 34°26' W 119°55'0 0.0
2018-Apr-14 10:30N 34°26' W 119°55'0 0.0
2018-Apr-14 07:10N 34°26' W 119°55'0 0.0
2018-Apr-14 06:52N 34°26' W 119°55'0 0.0
2018-Apr-14 03:44N 34°26' W 119°55'0 0.0
2018-Apr-14 03:29N 34°26' W 119°55'0 0.0
2018-Apr-14 02:48N 34°26' W 119°55'0 0.0
2018-Apr-14 02:00N 34°26' W 119°55'0 0.0
2018-Apr-14 01:27N 34°26' W 119°55'2 4.2
2018-Apr-14 00:54N 34°23' W 119°54'3 6.4
2018-Apr-14 00:30N 34°26' W 119°55'0 0.2
2018-Apr-13 23:14N 34°26' W 119°55'0 0.0
2018-Apr-13 21:50N 34°26' W 119°55'0 0.0
2018-Apr-13 21:28N 34°26' W 119°55'2 1.1
2018-Apr-13 19:27N 34°23' W 119°55'0 0.0
2018-Apr-13 18:57N 34°23' W 119°55'0 0.0
2018-Apr-13 18:04N 34°23' W 119°55'0 0.0
2018-Apr-13 17:34N 34°23' W 119°55'0 0.2
2018-Apr-13 17:22N 34°23' W 119°55'2 2.1
2018-Apr-13 16:12N 34°26' W 119°55'3 7.6
2018-Apr-13 15:52N 34°23' W 119°54'2 1.0
2018-Apr-13 13:42N 34°26' W 119°55'0 0.6
2018-Apr-13 13:27N 34°26' W 119°55'0 0.2
2018-Apr-13 12:33N 34°26' W 119°55'0 0.2
2018-Apr-13 11:10N 34°26' W 119°55'0 0.0
2018-Apr-13 01:18N 34°26' W 119°55'2 4.4
2018-Apr-13 00:57N 34°24' W 119°55'2 0.5
2018-Apr-12 22:08N 34°26' W 119°55'0 0.0
2018-Apr-12 21:42N 34°26' W 119°55'0 0.0
2018-Apr-12 21:10N 34°25' W 119°55'1 4.4
2018-Apr-12 20:59N 34°25' W 119°56'1 0.2
2018-Apr-12 16:23N 34°26' W 119°55'0 0.0
2018-Apr-12 15:55N 34°26' W 119°55'0 0.0
2018-Apr-12 15:07N 34°26' W 119°55'0 0.0
2018-Apr-12 14:37N 34°26' W 119°55'0 0.8
2018-Apr-12 14:13N 34°26' W 119°55'0 0.4
2018-Apr-12 13:28N 34°26' W 119°55'0 0.8
2018-Apr-12 12:56N 34°25' W 119°56'0 0.9
2018-Apr-12 12:26N 34°26' W 119°55'0 0.0
2018-Apr-12 04:56N 34°26' W 119°55'  

Dump ship's entire track history